Time;durP1;ratioP1;P1;durP2;ratioP2;P2;SDS_P1;SDS_P2;PMS_P1;PMS_P2;Temp;Humidity;BMP_temperature;BMP_pressure;BME280_temperature;BME280_humidity;BME280_pressure;Samples;Min_cycle;Max_cycle;Signal;HPM_P1;HPM_P2
2022/03/23 00:01:09;;;;;;;63.60;39.85;;;8.40;99.90;;;;;;5035487;28;20052;-77
2022/03/23 00:03:37;;;;;;;59.25;37.13;;;8.40;99.90;;;;;;5038629;28;20053;-77
2022/03/23 00:06:04;;;;;;;61.10;37.63;;;8.40;99.90;;;;;;5038084;28;20766;-77
2022/03/23 00:08:30;;;;;;;61.72;37.38;;;8.40;99.90;;;;;;5034169;28;20056;-76
2022/03/23 00:10:56;;;;;;;63.80;38.15;;;8.30;99.90;;;;;;5035028;28;20045;-77
2022/03/23 00:13:22;;;;;;;62.25;36.70;;;8.30;99.90;;;;;;5029787;28;20479;-76
2022/03/23 00:15:48;;;;;;;62.08;37.22;;;8.30;99.90;;;;;;5037378;28;20073;-77
2022/03/23 00:18:13;;;;;;;61.65;37.60;;;8.30;99.90;;;;;;5030641;28;20567;-76
2022/03/23 00:20:39;;;;;;;62.85;38.05;;;8.20;99.90;;;;;;5035953;28;20060;-75
2022/03/23 00:23:05;;;;;;;64.43;38.72;;;8.20;99.90;;;;;;5035849;28;20063;-76
2022/03/23 00:25:31;;;;;;;63.03;38.50;;;8.20;99.90;;;;;;5034180;28;20427;-77
2022/03/23 00:27:57;;;;;;;63.13;38.78;;;8.10;99.90;;;;;;5037411;28;20157;-77
2022/03/23 00:30:23;;;;;;;58.10;36.60;;;8.10;99.90;;;;;;5035422;28;20567;-77
2022/03/23 00:32:49;;;;;;;64.82;38.28;;;8.00;99.90;;;;;;5038505;28;20051;-77
2022/03/23 00:35:15;;;;;;;63.60;37.17;;;8.00;99.90;;;;;;5037113;28;20067;-77
2022/03/23 00:37:42;;;;;;;61.95;38.05;;;7.90;99.90;;;;;;5036095;28;20044;-77
2022/03/23 00:40:08;;;;;;;59.13;37.90;;;7.90;99.90;;;;;;5038435;28;20049;-77
2022/03/23 00:42:34;;;;;;;62.85;38.55;;;7.90;99.90;;;;;;5037425;28;20587;-77
2022/03/23 00:44:59;;;;;;;62.92;38.15;;;7.90;99.90;;;;;;5038625;28;20055;-77
2022/03/23 00:47:25;;;;;;;59.47;38.03;;;7.80;99.90;;;;;;5031855;28;20535;-76
2022/03/23 00:49:50;;;;;;;60.95;37.33;;;7.80;99.90;;;;;;5038155;28;20126;-77
2022/03/23 00:52:16;;;;;;;63.45;36.60;;;7.80;99.90;;;;;;5033813;28;20049;-77
2022/03/23 00:54:42;;;;;;;64.32;37.70;;;7.80;99.90;;;;;;5033818;28;20041;-77
2022/03/23 00:57:08;;;;;;;60.65;36.85;;;7.70;99.90;;;;;;5038081;28;20049;-77
2022/03/23 00:59:34;;;;;;;63.20;36.72;;;7.70;99.90;;;;;;5035185;28;20701;-77
2022/03/23 01:02:00;;;;;;;63.83;38.13;;;7.70;99.90;;;;;;5038289;28;20049;-77
2022/03/23 01:04:26;;;;;;;62.25;37.90;;;7.60;99.90;;;;;;5036243;28;20041;-77
2022/03/23 01:06:52;;;;;;;66.88;39.05;;;7.60;99.90;;;;;;5036099;28;20636;-77
2022/03/23 01:09:23;;;;;;;57.90;36.80;;;7.60;99.90;;;;;;5038276;28;20049;-77
2022/03/23 01:11:53;;;;;;;62.20;37.13;;;7.50;99.90;;;;;;5025664;28;20118;-76
2022/03/23 01:14:22;;;;;;;67.72;38.97;;;7.50;99.90;;;;;;5036638;28;20757;-76
2022/03/23 01:16:50;;;;;;;68.65;39.15;;;7.50;99.90;;;;;;5038232;28;20049;-77
2022/03/23 01:19:17;;;;;;;61.15;37.38;;;7.40;99.90;;;;;;5042693;28;20044;-77
2022/03/23 01:21:44;;;;;;;64.68;37.05;;;7.40;99.90;;;;;;5034023;28;20098;-77
2022/03/23 01:24:10;;;;;;;59.53;35.15;;;7.40;99.90;;;;;;5039311;28;20475;-77
2022/03/23 01:26:36;;;;;;;68.72;38.05;;;7.30;99.90;;;;;;5040147;28;20053;-76
2022/03/23 01:29:03;;;;;;;60.92;35.47;;;7.30;99.90;;;;;;5033419;28;20044;-77
2022/03/23 01:31:30;;;;;;;63.85;38.95;;;7.30;99.90;;;;;;5040636;28;20056;-76
2022/03/23 01:33:59;;;;;;;62.97;37.45;;;7.30;99.90;;;;;;5032936;28;20740;-77
2022/03/23 01:36:26;;;;;;;67.00;37.08;;;7.20;99.90;;;;;;5036814;28;20049;-77
2022/03/23 01:38:52;;;;;;;65.13;38.22;;;7.20;99.90;;;;;;5034401;28;20114;-77
2022/03/23 01:41:19;;;;;;;63.63;37.13;;;7.20;99.90;;;;;;5037489;28;20045;-77
2022/03/23 01:43:45;;;;;;;59.05;35.08;;;7.20;99.90;;;;;;5041022;28;20052;-77
2022/03/23 01:46:10;;;;;;;57.97;35.40;;;7.20;99.90;;;;;;5038501;28;20049;-77
2022/03/23 01:48:36;;;;;;;68.63;37.33;;;7.10;99.90;;;;;;5037867;28;20041;-77
2022/03/23 01:51:02;;;;;;;64.43;37.25;;;7.10;99.90;;;;;;5040732;28;20072;-76
2022/03/23 01:53:28;;;;;;;63.90;37.45;;;7.00;99.90;;;;;;5040891;28;20151;-77
2022/03/23 01:55:54;;;;;;;65.60;37.72;;;7.00;99.90;;;;;;5032175;28;20209;-77
2022/03/23 01:58:22;;;;;;;66.55;36.47;;;7.00;99.90;;;;;;5039390;28;20041;-76
2022/03/23 02:00:48;;;;;;;59.20;35.75;;;7.00;99.90;;;;;;5040477;28;20786;-76
2022/03/23 02:03:14;;;;;;;61.53;36.42;;;7.00;99.90;;;;;;5035622;28;20041;-76
2022/03/23 02:05:39;;;;;;;66.20;37.10;;;7.30;99.90;;;;;;5036471;28;20060;-77
2022/03/23 02:08:05;;;;;;;63.28;37.00;;;6.90;99.90;;;;;;5041368;28;20068;-77
2022/03/23 02:10:31;;;;;;;69.43;37.63;;;6.90;99.90;;;;;;5033094;28;20784;-77
2022/03/23 02:12:57;;;;;;;61.92;37.38;;;6.80;99.90;;;;;;5034515;28;20048;-77
2022/03/23 02:15:28;;;;;;;65.15;38.42;;;6.80;99.90;;;;;;5031834;28;20053;-77
2022/03/23 02:17:54;;;;;;;62.95;38.03;;;6.80;99.90;;;;;;5038028;28;20095;-77
2022/03/23 02:20:20;;;;;;;68.47;38.53;;;6.70;99.90;;;;;;5038746;28;20067;-76
2022/03/23 02:22:46;;;;;;;64.20;35.58;;;6.70;99.90;;;;;;5035604;28;20053;-77
2022/03/23 02:25:12;;;;;;;63.50;37.80;;;6.70;99.90;;;;;;5038404;28;20060;-77
2022/03/23 02:27:39;;;;;;;66.63;37.80;;;6.60;99.90;;;;;;5034851;28;20032;-77
2022/03/23 02:30:07;;;;;;;61.33;36.33;;;6.60;99.90;;;;;;5034451;28;20049;-76
2022/03/23 02:32:32;;;;;;;68.65;38.40;;;6.60;99.90;;;;;;5039987;28;20554;-77
2022/03/23 02:35:01;;;;;;;63.53;36.25;;;6.60;99.90;;;;;;5042857;28;20041;-76
2022/03/23 02:37:27;;;;;;;68.15;37.35;;;6.50;99.90;;;;;;5040220;28;20041;-77
2022/03/23 02:39:53;;;;;;;64.47;36.33;;;6.50;99.90;;;;;;5038845;28;20587;-76
2022/03/23 02:42:19;;;;;;;60.67;35.40;;;6.50;99.90;;;;;;5038098;28;20134;-76
2022/03/23 02:44:44;;;;;;;60.25;36.25;;;6.50;99.90;;;;;;5033749;28;20832;-76
2022/03/23 02:47:10;;;;;;;61.55;35.25;;;6.50;99.90;;;;;;5033009;28;20050;-76
2022/03/23 02:49:36;;;;;;;60.20;35.88;;;6.50;99.90;;;;;;5033224;28;20056;-77
2022/03/23 02:52:02;;;;;;;62.35;36.67;;;7.00;99.90;;;;;;5034121;28;20091;-76
2022/03/23 03:03:54;;;;;;;62.03;33.83;;;6.30;99.90;;;;;;5032276;28;20511;-76
2022/03/23 03:06:20;;;;;;;64.30;35.22;;;6.20;99.90;;;;;;5036060;28;20041;-77
2022/03/23 03:08:45;;;;;;;63.88;35.72;;;6.20;99.90;;;;;;5025512;28;20041;-77
2022/03/23 03:11:11;;;;;;;62.35;36.45;;;6.20;99.90;;;;;;5033941;28;20045;-77
2022/03/23 03:13:39;;;;;;;64.55;35.03;;;6.20;99.90;;;;;;5035887;28;20615;-76
2022/03/23 03:16:05;;;;;;;61.35;34.70;;;6.10;99.90;;;;;;5039338;28;20037;-77
2022/03/23 03:18:33;;;;;;;60.00;34.75;;;6.10;99.90;;;;;;5036041;28;20739;-77
2022/03/23 03:21:06;;;;;;;63.22;36.42;;;6.10;99.90;;;;;;5030589;28;20045;-76
2022/03/23 03:23:33;;;;;;;66.07;35.92;;;6.10;99.90;;;;;;5034589;28;20118;-76
2022/03/23 03:26:01;;;;;;;62.88;37.47;;;6.00;99.90;;;;;;5034858;28;20044;-77
2022/03/23 03:28:27;;;;;;;62.80;36.28;;;6.00;99.90;;;;;;5037227;28;20056;-76
2022/03/23 03:30:53;;;;;;;60.58;36.10;;;6.00;99.90;;;;;;5034103;28;20832;-77
2022/03/23 03:33:18;;;;;;;65.05;36.63;;;6.00;99.90;;;;;;5043913;28;20079;-77
2022/03/23 03:35:44;;;;;;;69.97;38.80;;;6.00;99.90;;;;;;5036052;28;20118;-76
2022/03/23 03:38:10;;;;;;;65.78;37.40;;;5.90;99.90;;;;;;5038771;28;20049;-77
2022/03/23 03:40:36;;;;;;;66.47;36.65;;;5.90;99.90;;;;;;5037583;28;20069;-76
2022/03/23 03:43:02;;;;;;;64.50;36.00;;;5.90;99.90;;;;;;5022637;28;20214;-77
2022/03/23 03:45:28;;;;;;;74.70;37.78;;;5.90;99.90;;;;;;5038949;28;20116;-76
2022/03/23 03:47:55;;;;;;;66.93;38.25;;;5.90;99.90;;;;;;5030859;28;20701;-76
2022/03/23 03:50:20;;;;;;;67.75;37.88;;;5.80;99.90;;;;;;5035807;28;20119;-77
2022/03/23 03:52:46;;;;;;;67.32;37.33;;;5.80;99.90;;;;;;5036932;28;20041;-76
2022/03/23 03:55:12;;;;;;;62.63;37.20;;;5.70;99.90;;;;;;5032114;28;20076;-77
2022/03/23 03:57:38;;;;;;;70.55;38.35;;;5.70;99.90;;;;;;5038908;28;20077;-77
2022/03/23 04:00:05;;;;;;;61.88;37.25;;;5.70;99.90;;;;;;5036100;28;20428;-76
2022/03/23 04:02:30;;;;;;;64.60;37.45;;;5.60;99.90;;;;;;5038678;28;20045;-76
2022/03/23 04:04:56;;;;;;;66.30;37.70;;;5.60;99.90;;;;;;5036845;28;20044;-76
2022/03/23 04:07:21;;;;;;;69.63;36.95;;;5.60;99.90;;;;;;5037899;28;20068;-76
2022/03/23 04:09:47;;;;;;;60.15;36.15;;;5.60;99.90;;;;;;5036875;28;20059;-76
2022/03/23 04:12:13;;;;;;;64.55;37.42;;;5.60;99.90;;;;;;5026384;28;20091;-76
2022/03/23 04:14:38;;;;;;;71.03;38.30;;;5.60;99.90;;;;;;5037248;28;20827;-76
2022/03/23 04:17:04;;;;;;;65.70;37.80;;;5.50;99.90;;;;;;5030948;28;20040;-77
2022/03/23 04:19:30;;;;;;;68.90;37.35;;;5.50;99.90;;;;;;5028986;28;20111;-77
2022/03/23 04:21:56;;;;;;;67.18;38.50;;;5.50;99.90;;;;;;5038650;28;20812;-77
2022/03/23 04:24:21;;;;;;;71.38;40.65;;;5.40;99.90;;;;;;5032630;28;20036;-76
2022/03/23 04:26:47;;;;;;;72.55;39.75;;;5.40;99.90;;;;;;5038918;28;20088;-77
2022/03/23 04:29:12;;;;;;;66.72;37.47;;;5.40;99.90;;;;;;5033745;28;20191;-77
2022/03/23 04:31:39;;;;;;;67.85;38.53;;;5.30;99.90;;;;;;5037318;28;20068;-76
2022/03/23 04:34:05;;;;;;;65.25;38.42;;;5.30;99.90;;;;;;5034314;28;20412;-77
2022/03/23 04:36:31;;;;;;;76.53;40.63;;;5.30;99.90;;;;;;5035801;28;20076;-77
2022/03/23 04:38:57;;;;;;;67.15;40.30;;;5.30;99.90;;;;;;5037103;28;20148;-77
2022/03/23 04:41:22;;;;;;;70.40;39.72;;;5.30;99.90;;;;;;5033934;28;20052;-76
2022/03/23 04:43:48;;;;;;;68.30;39.30;;;5.30;99.90;;;;;;5038664;28;20111;-76
2022/03/23 04:46:14;;;;;;;77.10;39.65;;;5.30;99.90;;;;;;5036528;28;20048;-77
2022/03/23 04:48:40;;;;;;;73.53;40.17;;;5.30;99.90;;;;;;5035472;28;20071;-77
2022/03/23 04:51:06;;;;;;;65.65;39.28;;;5.20;99.90;;;;;;5035443;28;20464;-77
2022/03/23 04:53:32;;;;;;;72.50;38.13;;;5.20;99.90;;;;;;5021011;28;20056;-76
2022/03/23 04:55:57;;;;;;;72.60;39.17;;;5.20;99.90;;;;;;5042490;28;20095;-77
2022/03/23 04:58:27;;;;;;;73.68;38.85;;;5.20;99.90;;;;;;5034626;28;20041;-76
2022/03/23 05:00:54;;;;;;;69.22;39.58;;;5.10;99.90;;;;;;5039427;28;20059;-77
2022/03/23 05:03:19;;;;;;;66.15;37.67;;;5.10;99.90;;;;;;5039871;28;20045;-77
2022/03/23 05:05:45;;;;;;;74.32;40.58;;;5.10;99.90;;;;;;5037627;28;20114;-76
2022/03/23 05:08:10;;;;;;;70.95;40.05;;;5.10;99.90;;;;;;5041050;28;20150;-77
2022/03/23 05:10:36;;;;;;;71.75;40.38;;;5.00;99.90;;;;;;5040453;28;20041;-76
2022/03/23 05:13:02;;;;;;;72.95;39.03;;;5.00;99.90;;;;;;5035817;28;20041;-76
2022/03/23 05:15:27;;;;;;;67.45;40.05;;;5.00;99.90;;;;;;5040560;28;20571;-76
2022/03/23 05:17:53;;;;;;;72.82;40.25;;;5.00;99.90;;;;;;5041838;28;20056;-76
2022/03/23 05:20:20;;;;;;;64.57;38.15;;;5.00;99.90;;;;;;5035932;28;20053;-76
2022/03/23 05:22:45;;;;;;;69.40;39.15;;;5.00;99.90;;;;;;5032833;28;20049;-76
2022/03/23 05:25:12;;;;;;;71.72;40.50;;;4.90;99.90;;;;;;5040746;28;20083;-76
2022/03/23 05:27:40;;;;;;;76.28;42.38;;;4.90;99.90;;;;;;5041410;28;20583;-76
2022/03/23 05:30:08;;;;;;;68.88;39.22;;;5.00;99.90;;;;;;5052495;28;20686;-76
2022/03/23 05:32:35;;;;;;;70.05;41.45;;;4.90;99.90;;;;;;5025527;28;20053;-76
2022/03/23 05:35:04;;;;;;;69.57;41.67;;;4.90;99.90;;;;;;5028404;28;20180;-76
2022/03/23 05:37:31;;;;;;;65.18;40.20;;;4.90;99.90;;;;;;5039836;28;20053;-76
2022/03/23 05:39:57;;;;;;;77.47;42.47;;;4.80;99.90;;;;;;5021715;28;20075;-76
2022/03/23 05:42:23;;;;;;;85.03;42.90;;;4.90;99.90;;;;;;5026723;28;20766;-76
2022/03/23 05:44:48;;;;;;;73.18;41.63;;;4.90;99.90;;;;;;5029402;28;20040;-76
2022/03/23 05:47:14;;;;;;;72.10;42.13;;;4.80;99.90;;;;;;5034029;28;20778;-77
2022/03/23 05:49:40;;;;;;;77.50;43.58;;;4.90;99.90;;;;;;5031214;28;20119;-76
2022/03/23 05:52:08;;;;;;;82.18;43.50;;;4.90;99.90;;;;;;5029144;28;20503;-76
2022/03/23 05:54:34;;;;;;;74.75;40.55;;;4.90;99.90;;;;;;5029234;28;20057;-76
2022/03/23 05:57:02;;;;;;;78.13;44.17;;;4.90;99.90;;;;;;5038865;28;20398;-77
2022/03/23 05:59:28;;;;;;;75.03;42.05;;;4.90;99.90;;;;;;5035994;28;20460;-76
2022/03/23 06:01:54;;;;;;;73.97;41.13;;;4.90;99.90;;;;;;5027904;28;20383;-76
2022/03/23 06:04:20;;;;;;;74.75;44.42;;;5.00;99.90;;;;;;5036743;28;20619;-76
2022/03/23 06:06:45;;;;;;;77.82;42.53;;;6.20;99.90;;;;;;5033904;28;20095;-77
2022/03/23 06:09:12;;;;;;;74.03;41.15;;;5.00;99.90;;;;;;5036736;28;20127;-78
2022/03/23 06:11:39;;;;;;;72.95;42.38;;;5.00;99.90;;;;;;5032938;28;20045;-77
2022/03/23 06:14:04;;;;;;;75.65;41.47;;;5.00;99.90;;;;;;5040967;28;20586;-77
2022/03/23 06:16:31;;;;;;;73.63;42.47;;;5.10;99.90;;;;;;5032397;28;20041;-77
2022/03/23 06:18:59;;;;;;;74.20;42.80;;;5.10;99.90;;;;;;5037942;28;20151;-76
2022/03/23 06:21:25;;;;;;;75.85;42.80;;;5.10;99.90;;;;;;5036306;28;20053;-75
2022/03/23 06:23:51;;;;;;;74.97;41.63;;;5.10;99.90;;;;;;5034260;28;20060;-75
2022/03/23 06:26:19;;;;;;;84.00;44.25;;;5.10;99.90;;;;;;5037006;28;20102;-75
2022/03/23 06:28:45;;;;;;;75.35;43.15;;;5.20;99.90;;;;;;5035689;28;20049;-75
2022/03/23 06:31:10;;;;;;;77.10;42.47;;;5.20;99.90;;;;;;5040500;28;20067;-75
2022/03/23 06:33:36;;;;;;;79.63;44.50;;;5.20;99.90;;;;;;5033707;28;20037;-76
2022/03/23 06:36:02;;;;;;;77.65;43.65;;;5.20;99.90;;;;;;5032106;28;20057;-75
2022/03/23 06:38:28;;;;;;;79.10;44.38;;;5.30;99.90;;;;;;5035339;28;20587;-76
2022/03/23 06:40:53;;;;;;;86.85;45.78;;;5.30;99.90;;;;;;5034202;28;20103;-76
2022/03/23 06:43:19;;;;;;;81.05;44.58;;;5.30;99.90;;;;;;5021987;28;20052;-76
2022/03/23 06:45:45;;;;;;;83.78;44.85;;;5.40;99.90;;;;;;5029821;28;20062;-77
2022/03/23 06:48:11;;;;;;;87.32;47.15;;;5.40;99.90;;;;;;5036219;28;20629;-76
2022/03/23 06:50:36;;;;;;;82.07;45.20;;;5.50;99.90;;;;;;5029670;28;20045;-76
2022/03/23 06:53:03;;;;;;;81.30;45.13;;;5.50;99.90;;;;;;5029069;28;20041;-77
2022/03/23 06:55:28;;;;;;;79.97;45.28;;;5.60;99.90;;;;;;5027301;28;20516;-77
2022/03/23 06:57:55;;;;;;;74.47;42.60;;;5.60;99.90;;;;;;5026530;28;20041;-77
2022/03/23 07:00:22;;;;;;;81.78;45.97;;;5.70;99.90;;;;;;5028762;28;20106;-76
2022/03/23 07:02:48;;;;;;;84.78;46.92;;;5.70;99.90;;;;;;5032002;28;20052;-77
2022/03/23 07:05:16;;;;;;;81.07;44.63;;;5.80;99.90;;;;;;5031208;28;20148;-74
2022/03/23 07:09:31;;;;;;;82.75;46.53;;;5.80;99.90;;;;;;5031887;28;20077;-77
2022/03/23 07:10:33;;;;;;;85.93;45.67;;;5.90;99.90;;;;;;5024775;28;20173;-76
2022/03/23 07:12:58;;;;;;;83.50;47.15;;;6.00;99.90;;;;;;5031708;28;20053;-76
2022/03/23 07:15:24;;;;;;;87.57;47.63;;;6.10;99.90;;;;;;5034033;28;20076;-76
2022/03/23 07:17:50;;;;;;;87.60;48.10;;;6.20;99.90;;;;;;5031292;28;20144;-76
2022/03/23 07:20:16;;;;;;;81.18;47.15;;;6.30;99.90;;;;;;5028498;28;20056;-76
2022/03/23 07:22:41;;;;;;;79.97;45.15;;;6.40;99.90;;;;;;5032900;28;20063;-76
2022/03/23 07:25:07;;;;;;;78.53;44.67;;;6.50;99.90;;;;;;5027958;28;20041;-76
2022/03/23 07:27:33;;;;;;;73.43;43.40;;;6.60;99.90;;;;;;5031933;28;20060;-77
2022/03/23 07:29:59;;;;;;;71.20;41.58;;;6.60;99.90;;;;;;5031467;28;20068;-77
2022/03/23 07:32:24;;;;;;;70.05;42.45;;;6.70;99.90;;;;;;5034904;28;20151;-75
2022/03/23 07:34:50;;;;;;;74.68;41.13;;;6.80;99.90;;;;;;5031198;28;20175;-75
2022/03/23 07:37:15;;;;;;;66.55;38.78;;;6.90;99.90;;;;;;5029225;28;20568;-77
2022/03/23 07:39:42;;;;;;;66.13;38.63;;;7.10;99.90;;;;;;5031504;28;20045;-78
2022/03/23 07:42:08;;;;;;;64.88;39.33;;;7.20;99.90;;;;;;5035726;28;20056;-79
2022/03/23 07:44:33;;;;;;;63.55;38.03;;;7.20;99.90;;;;;;5035674;28;20041;-78
2022/03/23 07:46:59;;;;;;;66.05;38.13;;;7.30;99.90;;;;;;5037493;28;20118;-78
2022/03/23 07:49:28;;;;;;;65.82;38.50;;;7.40;99.90;;;;;;5038593;28;20114;-78
2022/03/23 07:51:54;;;;;;;61.85;37.22;;;7.50;99.90;;;;;;5035567;28;20054;-79
2022/03/23 07:54:20;;;;;;;56.45;35.58;;;7.60;99.90;;;;;;5036425;28;20051;-78
2022/03/23 07:56:46;;;;;;;56.65;34.97;;;7.70;99.90;;;;;;5037460;28;20060;-79
2022/03/23 07:59:11;;;;;;;57.45;34.35;;;7.80;99.90;;;;;;5037510;28;20069;-79
2022/03/23 08:01:37;;;;;;;53.33;34.55;;;7.90;99.90;;;;;;5038843;28;20090;-79
2022/03/23 08:04:04;;;;;;;51.08;31.50;;;8.60;99.90;;;;;;5037425;28;20049;-79
2022/03/23 08:06:30;;;;;;;52.53;31.20;;;8.10;99.90;;;;;;5036907;28;20152;-78
2022/03/23 08:08:56;;;;;;;52.85;32.72;;;8.20;99.90;;;;;;5035841;28;20049;-79
2022/03/23 08:11:23;;;;;;;51.28;31.63;;;8.30;99.90;;;;;;5026895;28;20425;-79
2022/03/23 08:13:49;;;;;;;47.72;29.42;;;8.40;99.90;;;;;;5037699;28;20041;-79
2022/03/23 08:16:15;;;;;;;49.60;30.13;;;8.50;99.90;;;;;;5036839;28;20052;-79
2022/03/23 08:18:40;;;;;;;45.13;29.55;;;8.60;99.90;;;;;;5037000;28;20049;-79
2022/03/23 08:21:06;;;;;;;46.35;28.10;;;8.70;99.90;;;;;;5038514;28;20513;-79
2022/03/23 08:23:32;;;;;;;47.22;28.20;;;8.80;99.90;;;;;;5036618;28;20111;-79
2022/03/23 08:25:58;;;;;;;45.38;28.25;;;8.90;99.90;;;;;;5028113;28;20148;-79
2022/03/23 08:28:23;;;;;;;43.25;27.55;;;9.00;99.90;;;;;;5036385;28;20544;-79
2022/03/23 08:30:49;;;;;;;42.60;26.33;;;9.10;99.90;;;;;;5038337;28;20055;-79
2022/03/23 08:33:15;;;;;;;43.92;26.80;;;9.20;99.90;;;;;;5037191;28;20110;-79
2022/03/23 08:35:41;;;;;;;39.50;25.70;;;9.30;99.90;;;;;;5037155;28;20044;-79
2022/03/23 08:38:07;;;;;;;41.25;26.48;;;10.00;99.90;;;;;;5033535;28;20056;-79
2022/03/23 08:40:34;;;;;;;42.95;26.90;;;9.50;99.90;;;;;;5034662;28;20060;-79
2022/03/23 08:43:02;;;;;;;44.58;26.80;;;9.70;99.90;;;;;;5035079;28;20689;-79
2022/03/23 08:45:27;;;;;;;36.33;24.15;;;9.80;99.90;;;;;;5035900;28;20041;-79
2022/03/23 08:47:54;;;;;;;40.20;25.10;;;9.90;99.90;;;;;;5037141;28;20069;-79
2022/03/23 08:50:20;;;;;;;38.88;25.52;;;10.00;99.90;;;;;;5036775;28;20041;-79
2022/03/23 08:52:45;;;;;;;37.10;23.83;;;10.20;99.90;;;;;;5030479;28;20053;-79
2022/03/23 08:55:19;;;;;;;36.88;23.73;;;10.30;99.90;;;;;;5036803;28;20033;-79
2022/03/23 08:57:45;;;;;;;34.85;22.67;;;10.50;99.90;;;;;;5036517;28;20169;-80
2022/03/23 09:00:12;;;;;;;36.65;23.00;;;10.60;99.90;;;;;;5032216;28;20037;-80
2022/03/23 09:02:38;;;;;;;34.45;23.10;;;11.00;99.90;;;;;;5038363;28;20056;-80
2022/03/23 09:05:10;;;;;;;33.28;22.67;;;10.80;99.90;;;;;;5038558;28;20051;-79
2022/03/23 09:07:37;;;;;;;30.85;21.35;;;11.00;99.90;;;;;;5030058;28;20066;-80
2022/03/23 09:10:04;;;;;;;33.08;21.67;;;11.20;99.90;;;;;;5030865;28;20041;-80
2022/03/23 09:12:29;;;;;;;30.67;21.02;;;11.30;99.90;;;;;;5033506;28;20152;-80
2022/03/23 09:14:55;;;;;;;31.67;21.48;;;11.50;99.90;;;;;;5038330;28;20044;-79
2022/03/23 09:17:22;;;;;;;33.75;22.00;;;11.60;99.90;;;;;;5031113;28;20515;-80
2022/03/23 09:19:48;;;;;;;34.28;22.00;;;11.80;99.90;;;;;;5033335;28;20056;-79
2022/03/23 09:22:13;;;;;;;34.03;23.48;;;11.90;99.90;;;;;;5037418;28;20045;-79
2022/03/23 09:24:39;;;;;;;32.22;21.85;;;12.10;99.90;;;;;;5036731;28;20104;-79
2022/03/23 09:27:05;;;;;;;30.98;21.25;;;12.30;99.90;;;;;;5038070;28;20099;-79
2022/03/23 09:29:34;;;;;;;31.73;21.70;;;12.50;98.60;;;;;;5038111;28;20053;-80
2022/03/23 09:32:00;;;;;;;31.33;22.42;;;12.60;99.10;;;;;;5036832;28;20080;-80
2022/03/23 09:34:25;;;;;;;29.75;21.45;;;12.80;98.50;;;;;;5025936;28;20839;-79
2022/03/23 09:39:36;;;;;;;31.90;22.00;;;13.20;96.10;;;;;;5037902;28;20049;-80
2022/03/23 09:42:05;;;;;;;32.13;21.73;;;13.30;94.40;;;;;;5040385;28;20127;-80
2022/03/23 09:44:31;;;;;;;30.98;22.67;;;13.50;94.80;;;;;;5041969;28;20033;-80
2022/03/23 09:46:57;;;;;;;33.67;23.02;;;13.60;93.60;;;;;;5041612;28;20044;-80
2022/03/23 09:49:25;;;;;;;33.03;22.48;;;13.80;94.10;;;;;;5037598;28;20771;-80
2022/03/23 09:51:53;;;;;;;28.90;22.02;;;13.90;93.60;;;;;;5040422;28;20053;-80
2022/03/23 09:54:23;;;;;;;33.38;22.60;;;14.10;92.70;;;;;;5039044;28;20131;-80
2022/03/23 09:56:49;;;;;;;28.73;21.25;;;14.30;92.80;;;;;;5041732;28;20056;-79
2022/03/23 09:59:15;;;;;;;33.78;23.50;;;14.50;92.40;;;;;;5039710;28;20866;-79
2022/03/23 10:01:47;;;;;;;30.25;20.98;;;14.60;92.20;;;;;;5040616;28;20147;-79
2022/03/23 10:04:12;;;;;;;34.97;21.65;;;14.70;86.60;;;;;;5037569;28;20156;-79
2022/03/23 10:07:10;;;;;;;31.38;21.95;;;14.90;87.20;;;;;;5023299;28;20048;-79
2022/03/23 10:10:18;;;;;;;29.08;21.25;;;15.00;82.30;;;;;;5032794;28;20518;-79
2022/03/23 10:13:21;;;;;;;31.40;19.80;;;15.20;82.40;;;;;;5016686;28;20102;-79
2022/03/23 10:16:24;;;;;;;26.90;18.88;;;15.40;81.10;;;;;;5035855;28;20049;-79
2022/03/23 10:18:54;;;;;;;28.15;19.95;;;15.60;74.50;;;;;;5036351;28;20057;-79
2022/03/23 10:21:22;;;;;;;30.25;18.42;;;15.70;76.00;;;;;;5040589;28;20068;-79
2022/03/23 10:24:14;;;;;;;23.85;17.27;;;15.90;74.90;;;;;;5038641;28;20060;-79
2022/03/23 10:26:41;;;;;;;21.88;16.45;;;16.00;69.90;;;;;;5034680;28;20072;-79
2022/03/23 10:29:22;;;;;;;24.08;16.92;;;16.20;70.10;;;;;;5038120;28;20064;-79
2022/03/23 10:32:05;;;;;;;21.80;15.98;;;16.40;68.40;;;;;;5049472;28;20049;-79
2022/03/23 10:34:57;;;;;;;23.17;18.15;;;16.50;62.90;;;;;;5040305;28;20087;-79
2022/03/23 10:37:31;;;;;;;20.17;15.10;;;16.70;58.50;;;;;;5039374;28;20053;-80
2022/03/23 10:40:09;;;;;;;22.27;15.88;;;16.80;60.90;;;;;;5049150;28;20045;-79
2022/03/23 10:42:37;;;;;;;20.23;15.65;;;16.90;62.40;;;;;;5048825;28;20106;-80
2022/03/23 10:45:12;;;;;;;21.25;15.32;;;17.10;62.40;;;;;;5034270;28;20049;-79
2022/03/23 10:47:39;;;;;;;19.30;15.38;;;17.20;62.50;;;;;;5033355;28;20048;-79
2022/03/23 10:50:12;;;;;;;19.63;14.55;;;17.30;60.40;;;;;;5039708;28;20120;-80
2022/03/23 10:53:01;;;;;;;19.73;14.30;;;17.50;56.00;;;;;;5038651;28;20049;-79
2022/03/23 10:55:29;;;;;;;22.17;13.50;;;17.60;57.30;;;;;;5040215;28;20044;-79
2022/03/23 10:58:00;;;;;;;23.73;15.70;;;17.70;57.70;;;;;;5033641;28;20147;-79
2022/03/23 11:00:29;;;;;;;20.45;15.95;;;17.80;54.50;;;;;;5034954;28;20134;-80
2022/03/23 11:02:55;;;;;;;21.55;14.95;;;17.80;57.00;;;;;;5032392;28;20058;-79
2022/03/23 11:05:33;;;;;;;25.92;16.33;;;18.00;56.80;;;;;;5037699;28;20044;-79
2022/03/23 11:08:09;;;;;;;24.58;15.82;;;18.00;56.10;;;;;;5038817;28;20124;-79
2022/03/23 11:16:50;;;;;;;23.63;14.95;;;18.40;56.50;;;;;;5028742;28;20099;-80
2022/03/23 11:19:18;;;;;;;22.02;14.93;;;18.50;55.10;;;;;;5028441;28;20088;-80
2022/03/23 11:22:12;;;;;;;25.52;16.55;;;18.60;55.70;;;;;;5039561;28;20064;-80
2022/03/23 11:24:43;;;;;;;22.00;15.63;;;18.70;54.00;;;;;;5038362;28;20049;-80
2022/03/23 11:27:11;;;;;;;24.13;15.05;;;18.80;55.10;;;;;;5036668;28;20045;-80
2022/03/23 11:29:39;;;;;;;21.63;14.10;;;18.90;53.60;;;;;;5038835;28;20057;-80
2022/03/23 11:32:11;;;;;;;20.80;14.90;;;18.90;52.90;;;;;;5039255;28;20098;-80
2022/03/23 11:34:38;;;;;;;20.23;14.43;;;19.00;52.70;;;;;;5039120;28;20049;-80
2022/03/23 11:37:06;;;;;;;22.52;13.85;;;19.10;54.40;;;;;;5037875;28;20587;-79
2022/03/23 11:39:34;;;;;;;23.13;13.90;;;19.10;51.20;;;;;;5037220;28;20045;-80
2022/03/23 11:42:02;;;;;;;23.65;13.77;;;19.20;52.40;;;;;;5036655;28;20162;-79
2022/03/23 11:44:27;;;;;;;22.65;12.23;;;19.30;51.80;;;;;;5037572;28;20045;-80
2022/03/23 11:47:25;;;;;;;19.80;11.50;;;19.30;51.40;;;;;;5037645;28;20123;-80
2022/03/23 11:50:03;;;;;;;22.30;11.95;;;19.40;51.40;;;;;;5031734;28;20061;-80
2022/03/23 11:52:44;;;;;;;25.15;11.32;;;19.60;52.00;;;;;;5039076;28;20602;-80
2022/03/23 11:55:42;;;;;;;21.33;12.02;;;19.60;49.40;;;;;;5040450;28;20048;-80
2022/03/23 11:58:32;;;;;;;22.67;11.63;;;19.70;49.40;;;;;;5039876;28;20588;-80
2022/03/23 12:01:06;;;;;;;23.17;10.07;;;19.70;50.50;;;;;;5037048;28;20142;-80
2022/03/23 12:03:45;;;;;;;20.10;10.13;;;19.80;50.30;;;;;;5037956;28;20044;-80
2022/03/23 12:06:16;;;;;;;19.63;11.65;;;19.80;49.50;;;;;;5036799;28;20544;-80
2022/03/23 12:08:54;;;;;;;26.42;11.77;;;20.00;49.40;;;;;;5039035;28;20113;-80
2022/03/23 12:11:33;;;;;;;21.33;12.23;;;20.00;48.10;;;;;;5024811;28;20037;-80
2022/03/23 12:14:00;;;;;;;22.00;12.07;;;20.10;48.50;;;;;;5037327;28;20098;-80
2022/03/23 12:16:51;;;;;;;27.27;10.98;;;20.10;49.90;;;;;;5036558;28;20044;-80
2022/03/23 12:19:18;;;;;;;23.15;11.32;;;20.20;48.50;;;;;;5038481;28;20048;-80
2022/03/23 12:22:14;;;;;;;27.63;10.18;;;20.30;49.70;;;;;;5036630;28;20057;-80
2022/03/23 12:24:54;;;;;;;19.55;8.98;;;20.40;48.50;;;;;;5024220;28;20059;-80
2022/03/23 12:27:41;;;;;;;21.25;8.38;;;20.50;48.70;;;;;;5036979;28;20146;-80
2022/03/23 12:30:14;;;;;;;26.80;9.00;;;20.50;48.10;;;;;;5038827;28;20095;-80
2022/03/23 12:32:40;;;;;;;18.17;8.60;;;20.60;49.70;;;;;;5037242;28;20468;-80
2022/03/23 12:35:07;;;;;;;20.67;8.68;;;20.60;49.60;;;;;;5038824;28;20159;-80
2022/03/23 12:37:41;;;;;;;23.02;8.57;;;20.70;48.50;;;;;;5036923;28;20074;-80
2022/03/23 12:40:11;;;;;;;;;;;20.70;48.00;;;;;;5036927;28;20056;-80
2022/03/23 12:42:42;;;;;;;25.35;8.93;;;20.60;47.10;;;;;;5038640;28;19932;-80
2022/03/23 12:45:22;;;;;;;20.67;8.05;;;20.70;47.10;;;;;;5040365;28;20084;-80
2022/03/23 12:57:49;;;;;;;21.42;8.52;;;20.70;46.80;;;;;;5038318;28;20762;-80
2022/03/23 12:59:17;;;;;;;18.70;7.35;;;21.00;48.50;;;;;;5034803;28;20056;-80
2022/03/23 13:01:43;;;;;;;21.83;7.70;;;21.20;48.90;;;;;;5038727;28;20452;-80
2022/03/23 13:04:32;;;;;;;20.38;8.23;;;21.20;47.50;;;;;;5038360;28;20063;-80
2022/03/23 13:06:57;;;;;;;22.13;8.60;;;21.30;47.20;;;;;;5032801;28;20277;-80
2022/03/23 13:09:26;;;;;;;20.38;8.48;;;21.30;48.50;;;;;;5037888;28;20773;-80